Time;durP1;ratioP1;P1;durP2;ratioP2;P2;SDS_P1;SDS_P2;PMS_P1;PMS_P2;Temp;Humidity;BMP_temperature;BMP_pressure;BME280_temperature;BME280_humidity;BME280_pressure;Samples;Min_cycle;Max_cycle;Signal;HPM_P1;HPM_P2
2021/04/21 00:00:17;;;;;;;21.07;19.03;;;18.90;32.50;;;;;;5032366;28;20913;-73
2021/04/21 00:02:48;;;;;;;18.70;16.90;;;18.90;32.40;;;;;;5032373;28;20874;-73
2021/04/21 00:05:15;;;;;;;19.63;17.67;;;18.90;32.40;;;;;;5032193;28;20550;-73
2021/04/21 00:07:42;;;;;;;19.90;18.00;;;18.80;32.30;;;;;;5032055;28;20469;-73
2021/04/21 00:10:10;;;;;;;19.93;17.97;;;18.80;32.30;;;;;;5032111;28;20458;-73
2021/04/21 00:12:36;;;;;;;19.40;17.60;;;18.90;32.40;;;;;;5030703;28;20432;-73
2021/04/21 00:15:05;;;;;;;18.67;17.07;;;18.80;32.40;;;;;;5032092;28;20924;-73
2021/04/21 00:17:31;;;;;;;19.00;17.10;;;18.80;32.30;;;;;;5031839;28;20431;-73
2021/04/21 00:19:57;;;;;;;17.73;16.13;;;18.80;32.30;;;;;;5032021;28;20403;-73
2021/04/21 00:22:27;;;;;;;17.47;16.07;;;18.80;32.30;;;;;;5032065;28;20193;-73
2021/04/21 00:24:53;;;;;;;18.70;16.90;;;18.80;32.30;;;;;;5031715;28;20447;-73
2021/04/21 00:27:22;;;;;;;17.97;16.40;;;18.80;32.30;;;;;;5031499;28;20530;-73
2021/04/21 00:29:55;;;;;;;19.37;17.57;;;18.80;32.40;;;;;;5031942;28;20407;-73
2021/04/21 00:32:25;;;;;;;18.87;17.10;;;18.80;32.30;;;;;;5031716;28;20498;-73
2021/04/21 00:34:54;;;;;;;18.00;16.37;;;18.80;32.30;;;;;;5031736;28;20485;-73
2021/04/21 00:37:24;;;;;;;18.67;16.97;;;18.80;32.30;;;;;;5031713;28;20851;-73
2021/04/21 00:39:50;;;;;;;19.43;17.40;;;18.80;32.30;;;;;;5031563;28;20472;-73
2021/04/21 00:42:36;;;;;;;18.50;16.90;;;18.80;32.30;;;;;;5031556;28;20415;-74
2021/04/21 00:45:10;;;;;;;16.77;15.27;;;18.80;32.30;;;;;;5033730;28;20250;-73
2021/04/21 00:47:59;;;;;;;16.43;14.97;;;18.80;32.30;;;;;;5030113;28;20877;-73
2021/04/21 00:50:35;;;;;;;16.33;14.90;;;18.80;32.30;;;;;;5040200;28;20485;-73
2021/04/21 00:53:31;;;;;;;16.20;14.80;;;18.70;32.20;;;;;;5030806;28;20427;-73
2021/04/21 00:56:19;;;;;;;16.63;15.03;;;18.80;32.40;;;;;;5031514;28;20403;-73
2021/04/21 00:59:07;;;;;;;17.27;15.67;;;18.80;32.30;;;;;;5031821;28;20404;-73
2021/04/21 01:01:36;;;;;;;16.33;14.90;;;18.70;32.20;;;;;;5031228;28;20430;-74
2021/04/21 01:04:03;;;;;;;17.73;16.23;;;18.70;32.20;;;;;;5031293;28;20857;-74
2021/04/21 01:06:32;;;;;;;17.30;15.73;;;18.70;32.20;;;;;;5031961;28;20431;-73
2021/04/21 01:09:00;;;;;;;17.40;15.73;;;18.70;32.20;;;;;;5032308;28;20455;-73
2021/04/21 01:11:49;;;;;;;15.70;14.30;;;18.70;32.20;;;;;;5031117;28;20412;-73
2021/04/21 01:14:18;;;;;;;17.20;15.70;;;18.70;32.20;;;;;;5033079;28;20474;-73
2021/04/21 01:16:47;;;;;;;16.57;15.17;;;18.70;32.10;;;;;;5030811;28;20925;-73
2021/04/21 01:19:23;;;;;;;16.67;15.07;;;18.70;32.20;;;;;;5030938;28;20404;-73
2021/04/21 01:21:57;;;;;;;14.70;13.33;;;18.70;32.20;;;;;;5030792;28;20391;-74
2021/04/21 01:24:44;;;;;;;15.83;14.43;;;18.70;32.20;;;;;;5030475;28;20451;-74
2021/04/21 01:27:19;;;;;;;15.43;14.17;;;18.70;32.20;;;;;;5030573;28;20430;-73
2021/04/21 01:29:48;;;;;;;16.97;15.37;;;18.70;32.20;;;;;;5030896;28;20910;-74
2021/04/21 01:32:25;;;;;;;14.80;13.50;;;18.70;32.20;;;;;;5030605;28;20403;-73
2021/04/21 01:34:53;;;;;;;14.37;12.90;;;18.70;32.20;;;;;;5030559;28;20402;-74
2021/04/21 01:37:25;;;;;;;15.63;14.23;;;18.70;32.20;;;;;;5029003;28;20505;-74
2021/04/21 01:40:10;;;;;;;16.10;14.53;;;18.70;32.20;;;;;;5030588;28;20415;-74
2021/04/21 01:42:40;;;;;;;14.93;13.70;;;18.70;32.20;;;;;;5030472;28;20419;-73
2021/04/21 01:45:10;;;;;;;15.90;14.60;;;18.70;32.20;;;;;;5030284;28;20825;-73
2021/04/21 01:47:37;;;;;;;14.50;13.20;;;18.70;32.20;;;;;;5030058;28;20436;-73
2021/04/21 01:50:06;;;;;;;15.00;13.70;;;18.60;32.10;;;;;;5030448;28;20813;-73
2021/04/21 01:52:43;;;;;;;15.20;13.90;;;18.70;32.20;;;;;;5028904;28;20439;-73
2021/04/21 01:55:20;;;;;;;14.90;13.60;;;18.70;32.90;;;;;;5032690;28;20438;-73
2021/04/21 01:57:56;;;;;;;14.33;13.00;;;18.60;32.10;;;;;;5036122;28;20935;-73
2021/04/21 02:00:31;;;;;;;15.07;13.77;;;18.60;32.00;;;;;;5028637;28;20414;-73
2021/04/21 02:03:34;;;;;;;15.80;14.40;;;18.60;32.10;;;;;;5027938;28;20417;-73
2021/04/21 02:06:38;;;;;;;14.30;13.17;;;18.60;32.10;;;;;;5032957;28;20788;-73
2021/04/21 02:09:28;;;;;;;13.63;12.53;;;18.60;32.10;;;;;;5032949;28;20482;-73
2021/04/21 02:12:07;;;;;;;13.10;11.93;;;18.60;32.10;;;;;;5034090;28;20423;-73
2021/04/21 02:14:49;;;;;;;14.00;12.90;;;18.60;32.10;;;;;;5034002;28;20407;-73
2021/04/21 02:17:40;;;;;;;13.90;12.70;;;18.60;32.10;;;;;;5034011;28;20484;-73
2021/04/21 02:20:20;;;;;;;14.63;13.43;;;18.60;32.10;;;;;;5034310;28;20411;-74
2021/04/21 02:22:57;;;;;;;13.80;12.70;;;18.60;32.10;;;;;;5033963;28;20485;-74
2021/04/21 02:26:08;;;;;;;14.07;12.90;;;18.60;32.10;;;;;;5032453;28;20873;-74
2021/04/21 02:28:50;;;;;;;11.90;10.77;;;18.60;32.80;;;;;;5034133;28;20774;-74
2021/04/21 02:31:34;;;;;;;13.17;12.07;;;18.60;32.10;;;;;;5033772;28;20411;-74
2021/04/21 02:34:11;;;;;;;13.60;12.50;;;18.60;32.10;;;;;;5032612;28;20468;-74
2021/04/21 02:36:44;;;;;;;13.20;12.20;;;18.60;32.10;;;;;;5032194;28;20879;-74
2021/04/21 02:39:21;;;;;;;13.70;12.60;;;18.60;32.10;;;;;;5033773;28;20392;-74
2021/04/21 02:41:57;;;;;;;13.83;12.63;;;18.60;32.10;;;;;;5033699;28;20787;-74
2021/04/21 02:45:05;;;;;;;13.23;12.23;;;18.60;32.10;;;;;;5032118;28;20516;-73
2021/04/21 02:47:38;;;;;;;12.67;11.57;;;18.50;32.00;;;;;;5033721;28;20423;-73
2021/04/21 02:50:20;;;;;;;14.13;12.80;;;18.60;32.00;;;;;;5033446;28;20466;-73
2021/04/21 02:53:02;;;;;;;12.13;11.23;;;18.60;32.10;;;;;;5032233;28;20898;-73
2021/04/21 02:56:08;;;;;;;13.53;12.53;;;18.50;31.90;;;;;;5032169;28;20414;-73
2021/04/21 02:59:01;;;;;;;12.30;11.27;;;18.50;31.90;;;;;;5042803;28;20916;-73
2021/04/21 03:02:21;;;;;;;12.40;11.50;;;18.50;31.90;;;;;;5032197;28;20442;-73
2021/04/21 03:04:56;;;;;;;11.80;10.83;;;18.50;31.90;;;;;;5050451;28;20473;-73
2021/04/21 03:07:50;;;;;;;13.37;12.10;;;18.50;32.00;;;;;;5035791;28;20542;-73
2021/04/21 03:10:18;;;;;;;12.10;11.10;;;18.50;31.90;;;;;;5033489;28;20979;-73
2021/04/21 03:12:51;;;;;;;12.73;11.70;;;18.50;31.90;;;;;;5033026;28;20429;-73
2021/04/21 03:15:21;;;;;;;12.90;11.90;;;18.50;31.90;;;;;;5032497;28;20396;-73
2021/04/21 03:17:51;;;;;;;12.50;11.50;;;18.50;31.90;;;;;;5033042;28;20427;-74
2021/04/21 03:20:20;;;;;;;13.37;12.27;;;18.50;31.90;;;;;;5033011;28;20453;-73
2021/04/21 03:22:54;;;;;;;12.23;11.37;;;18.50;32.00;;;;;;5032902;28;20404;-74
2021/04/21 03:25:33;;;;;;;13.23;12.03;;;18.50;32.00;;;;;;5032507;28;20447;-73
2021/04/21 03:28:03;;;;;;;11.63;10.73;;;18.50;31.90;;;;;;5032958;28;20451;-74
2021/04/21 03:30:31;;;;;;;12.47;11.47;;;18.50;31.90;;;;;;5032556;28;20414;-74
2021/04/21 03:33:20;;;;;;;11.10;10.20;;;18.50;31.90;;;;;;5033045;28;20491;-73
2021/04/21 03:35:50;;;;;;;11.63;10.63;;;18.50;31.90;;;;;;5032267;28;20415;-74
2021/04/21 03:38:16;;;;;;;11.77;10.87;;;18.50;31.90;;;;;;5032526;28;20435;-74
2021/04/21 03:40:42;;;;;;;12.50;11.50;;;18.50;32.00;;;;;;5032320;28;20412;-73
2021/04/21 03:43:09;;;;;;;11.33;10.33;;;18.50;32.00;;;;;;5032466;28;20464;-73
2021/04/21 03:45:36;;;;;;;12.13;11.20;;;18.70;31.90;;;;;;5032249;28;20490;-73
2021/04/21 03:48:03;;;;;;;12.67;11.57;;;18.70;31.50;;;;;;5042221;28;20443;-74
2021/04/21 03:50:30;;;;;;;12.67;11.57;;;18.90;31.40;;;;;;5034419;28;20423;-74
2021/04/21 03:53:00;;;;;;;11.90;10.90;;;19.00;31.00;;;;;;5032184;28;20419;-74
2021/04/21 03:55:26;;;;;;;11.67;10.77;;;19.10;31.00;;;;;;5032057;28;20403;-74
2021/04/21 03:57:58;;;;;;;11.77;10.77;;;19.30;30.80;;;;;;5032161;28;20427;-74
2021/04/21 04:00:25;;;;;;;11.63;10.83;;;19.30;30.50;;;;;;5032160;28;20963;-74
2021/04/21 04:02:56;;;;;;;10.10;9.40;;;19.40;30.40;;;;;;5032226;28;20465;-74
2021/04/21 04:05:28;;;;;;;11.70;10.70;;;19.40;30.30;;;;;;5031705;28;20553;-74
2021/04/21 04:08:00;;;;;;;11.33;10.53;;;19.50;30.20;;;;;;5031930;28;20423;-74
2021/04/21 04:10:29;;;;;;;11.30;10.30;;;19.50;30.20;;;;;;5032139;28;20442;-74
2021/04/21 04:12:57;;;;;;;10.60;9.80;;;19.50;30.10;;;;;;5031498;28;20427;-74
2021/04/21 04:15:25;;;;;;;9.53;8.80;;;19.60;30.20;;;;;;5031581;28;20503;-74
2021/04/21 04:17:55;;;;;;;10.30;9.40;;;19.50;30.00;;;;;;5031912;28;21011;-74
2021/04/21 04:20:22;;;;;;;10.00;9.20;;;19.60;30.10;;;;;;5031709;28;20439;-72
2021/04/21 04:22:50;;;;;;;10.20;9.43;;;19.50;30.00;;;;;;5031707;28;20412;-74
2021/04/21 04:25:17;;;;;;;10.50;9.80;;;19.50;30.00;;;;;;5031675;28;20500;-75
2021/04/21 04:27:44;;;;;;;10.03;9.33;;;19.60;30.20;;;;;;5034491;28;20449;-75
2021/04/21 04:30:11;;;;;;;9.10;8.40;;;19.50;30.10;;;;;;5031642;28;20407;-74
2021/04/21 04:32:41;;;;;;;11.83;10.83;;;19.50;30.10;;;;;;5031778;28;20447;-73
2021/04/21 04:35:08;;;;;;;10.93;9.93;;;19.50;30.50;;;;;;5031260;28;20832;-73
2021/04/21 04:37:39;;;;;;;13.17;11.00;;;19.60;31.40;;;;;;5030588;28;20442;-72
2021/04/21 04:40:07;;;;;;;13.63;10.50;;;19.70;31.90;;;;;;5031653;28;20450;-74
2021/04/21 04:42:35;;;;;;;10.53;9.70;;;19.70;31.90;;;;;;5037928;28;20500;-72
2021/04/21 04:45:02;;;;;;;17.60;10.07;;;19.70;31.40;;;;;;5031244;28;20835;-72
2021/04/21 04:47:49;;;;;;;11.87;10.87;;;19.70;31.30;;;;;;5031136;28;20848;-73
2021/04/21 04:50:17;;;;;;;11.80;10.70;;;19.70;31.40;;;;;;5031042;28;20414;-72
2021/04/21 04:52:46;;;;;;;12.10;11.00;;;19.70;31.40;;;;;;5030023;28;20967;-72
2021/04/21 04:55:15;;;;;;;12.40;9.70;;;19.70;31.40;;;;;;5035228;28;20430;-72
2021/04/21 04:57:45;;;;;;;11.33;10.43;;;19.80;31.50;;;;;;5033245;28;20439;-73
2021/04/21 05:00:16;;;;;;;10.80;9.70;;;19.70;31.40;;;;;;5032814;28;20410;-73
2021/04/21 05:03:17;;;;;;;10.50;9.67;;;19.70;31.50;;;;;;5030984;28;20499;-72
2021/04/21 05:05:44;;;;;;;11.30;10.27;;;19.70;31.60;;;;;;5028904;28;20763;-72
2021/04/21 05:08:16;;;;;;;10.57;9.50;;;19.80;31.80;;;;;;5030949;28;20466;-72
2021/04/21 05:10:52;;;;;;;9.80;9.10;;;19.70;31.80;;;;;;5030957;28;20408;-72
2021/04/21 05:13:22;;;;;;;11.53;10.50;;;19.70;31.90;;;;;;5030428;28;20431;-73
2021/04/21 05:16:12;;;;;;;11.27;9.70;;;19.70;31.90;;;;;;5030414;28;20824;-72
2021/04/21 05:19:05;;;;;;;10.57;9.60;;;19.70;31.90;;;;;;5038667;28;20770;-74
2021/04/21 05:22:08;;;;;;;10.53;9.53;;;19.70;32.00;;;;;;5030180;28;20415;-72
2021/04/21 05:25:01;;;;;;;11.23;10.30;;;19.70;32.00;;;;;;5030256;28;20495;-74
2021/04/21 05:27:30;;;;;;;11.07;10.07;;;19.70;32.00;;;;;;5030027;28;20480;-73
2021/04/21 05:30:29;;;;;;;16.33;10.30;;;19.70;32.00;;;;;;5030412;28;20715;-72
2021/04/21 05:33:30;;;;;;;11.47;10.57;;;19.70;32.00;;;;;;5030509;28;20400;-73
2021/04/21 05:36:42;;;;;;;11.50;9.90;;;19.60;32.30;;;;;;5029819;28;20407;-73
2021/04/21 05:39:59;;;;;;;12.40;10.53;;;19.60;32.30;;;;;;5030213;28;20409;-72
2021/04/21 05:43:06;;;;;;;12.10;9.53;;;19.60;32.00;;;;;;5028646;28;20425;-73
2021/04/21 05:45:49;;;;;;;10.33;9.50;;;19.60;31.70;;;;;;5038116;28;20478;-72
2021/04/21 05:48:39;;;;;;;10.67;9.60;;;19.60;31.60;;;;;;5030321;28;20518;-72
2021/04/21 05:51:32;;;;;;;10.80;9.47;;;19.60;31.60;;;;;;5029866;28;20415;-72
2021/04/21 05:54:31;;;;;;;11.97;10.00;;;19.60;31.40;;;;;;5030443;28;20411;-73
2021/04/21 05:57:38;;;;;;;10.00;9.20;;;19.60;31.30;;;;;;5030420;28;20546;-74
2021/04/21 06:00:17;;;;;;;10.03;9.23;;;19.60;31.30;;;;;;5029964;28;20410;-75
2021/04/21 06:02:45;;;;;;;10.70;9.80;;;19.70;31.40;;;;;;5029938;28;21040;-74
2021/04/21 06:05:13;;;;;;;9.90;8.97;;;19.60;31.20;;;;;;5029433;28;20538;-73
2021/04/21 06:07:39;;;;;;;12.23;10.40;;;19.70;31.40;;;;;;5029568;28;20431;-72
2021/04/21 06:10:25;;;;;;;10.43;9.47;;;19.70;31.40;;;;;;5029786;28;20426;-72
2021/04/21 06:12:57;;;;;;;10.83;9.93;;;19.70;31.40;;;;;;5029485;28;20505;-73
2021/04/21 06:15:27;;;;;;;11.93;10.93;;;19.60;31.40;;;;;;5028440;28;20787;-72
2021/04/21 06:17:55;;;;;;;12.20;11.10;;;19.50;30.60;;;;;;5029845;28;20423;-73
2021/04/21 06:20:36;;;;;;;11.00;10.10;;;19.40;29.90;;;;;;5029859;28;20781;-75
2021/04/21 06:23:06;;;;;;;11.63;10.53;;;19.40;29.60;;;;;;5028781;28;20423;-72
2021/04/21 06:25:32;;;;;;;14.00;12.60;;;19.30;29.50;;;;;;5029865;28;20522;-72
2021/04/21 06:28:15;;;;;;;12.70;11.40;;;19.20;29.30;;;;;;5029883;28;20936;-73
2021/04/21 06:30:41;;;;;;;14.33;10.80;;;19.20;29.40;;;;;;5030076;28;20407;-73
2021/04/21 06:33:08;;;;;;;13.03;10.83;;;19.20;29.40;;;;;;5028708;28;20530;-73
2021/04/21 06:35:35;;;;;;;13.13;11.87;;;19.30;29.50;;;;;;5029149;28;20449;-72
2021/04/21 06:38:02;;;;;;;11.90;10.70;;;19.30;29.50;;;;;;5030118;28;21011;-72
2021/04/21 06:40:29;;;;;;;12.57;10.00;;;19.30;29.20;;;;;;5029809;28;20412;-72
2021/04/21 06:42:57;;;;;;;15.17;11.40;;;19.30;29.00;;;;;;5029534;28;20412;-72
2021/04/21 06:45:24;;;;;;;12.53;9.80;;;19.40;29.20;;;;;;5029425;28;20466;-72
2021/04/21 06:47:51;;;;;;;11.20;10.13;;;19.40;28.70;;;;;;5029897;28;20431;-72
2021/04/21 06:50:17;;;;;;;11.43;10.23;;;19.50;28.90;;;;;;5029212;28;20407;-72
2021/04/21 06:52:43;;;;;;;10.63;9.80;;;19.40;28.90;;;;;;5032046;28;20533;-72
2021/04/21 06:55:15;;;;;;;12.30;11.10;;;19.50;28.70;;;;;;5033341;28;20177;-72
2021/04/21 06:57:41;;;;;;;12.60;10.03;;;19.50;28.50;;;;;;5032849;28;20879;-72
2021/04/21 07:00:10;;;;;;;11.17;10.20;;;19.50;28.40;;;;;;5033187;28;20422;-72
2021/04/21 07:02:41;;;;;;;10.20;9.30;;;19.60;28.50;;;;;;5033149;28;20419;-73
2021/04/21 07:05:27;;;;;;;10.87;9.87;;;19.60;28.50;;;;;;5032758;28;20458;-74
2021/04/21 07:07:59;;;;;;;11.10;10.20;;;19.60;28.70;;;;;;5033307;28;20534;-73
2021/04/21 07:10:25;;;;;;;10.90;9.50;;;19.60;28.70;;;;;;5032824;28;20411;-74
2021/04/21 07:12:50;;;;;;;9.37;8.67;;;19.50;28.80;;;;;;5030505;28;20441;-74
2021/04/21 07:15:17;;;;;;;11.10;9.13;;;19.50;29.00;;;;;;5032055;28;20187;-73
2021/04/21 07:17:43;;;;;;;10.33;9.30;;;19.50;29.10;;;;;;5032886;28;20704;-73
2021/04/21 07:20:09;;;;;;;12.07;9.27;;;19.40;29.20;;;;;;5032789;28;20418;-74
2021/04/21 07:22:37;;;;;;;9.70;8.77;;;19.40;29.30;;;;;;5032995;28;20179;-72
2021/04/21 07:25:03;;;;;;;9.67;8.77;;;19.40;29.60;;;;;;5032440;28;20501;-73
2021/04/21 07:27:29;;;;;;;9.83;8.77;;;19.40;29.60;;;;;;5032473;28;20419;-73
2021/04/21 07:29:54;;;;;;;10.30;8.23;;;19.30;29.50;;;;;;5032774;28;20415;-74
2021/04/21 07:32:22;;;;;;;9.23;8.63;;;19.30;29.50;;;;;;5032554;28;20184;-70
2021/04/21 07:34:59;;;;;;;9.20;8.40;;;19.30;29.50;;;;;;5032271;28;20172;-72
2021/04/21 07:37:40;;;;;;;9.63;8.67;;;19.30;29.50;;;;;;5032246;28;20423;-72
2021/04/21 07:40:26;;;;;;;9.00;8.20;;;19.30;29.50;;;;;;5031115;28;20473;-72
2021/04/21 07:43:06;;;;;;;8.97;8.33;;;19.30;29.50;;;;;;5032457;28;20461;-74
2021/04/21 07:45:47;;;;;;;8.43;7.73;;;19.20;29.40;;;;;;5032190;28;20585;-73
2021/04/21 07:48:34;;;;;;;9.13;8.27;;;19.20;29.50;;;;;;5031853;28;20485;-73
2021/04/21 07:51:15;;;;;;;9.90;9.10;;;19.20;29.50;;;;;;5032102;28;21038;-72
2021/04/21 07:53:48;;;;;;;9.07;8.20;;;19.10;29.50;;;;;;5032152;28;20999;-73
2021/04/21 07:56:13;;;;;;;9.00;8.33;;;19.10;29.60;;;;;;5031513;28;20417;-73
2021/04/21 07:58:39;;;;;;;8.73;8.13;;;19.10;29.70;;;;;;5032243;28;20415;-74
2021/04/21 08:01:05;;;;;;;8.30;7.60;;;19.10;29.80;;;;;;5030995;28;20193;-73
2021/04/21 08:03:30;;;;;;;9.23;8.53;;;19.10;29.90;;;;;;5030513;28;20177;-74
2021/04/21 08:05:56;;;;;;;8.73;7.80;;;19.10;29.90;;;;;;5032049;28;20175;-73
2021/04/21 08:08:29;;;;;;;8.90;8.07;;;19.10;29.90;;;;;;5032030;28;20248;-73
2021/04/21 08:10:55;;;;;;;8.63;7.93;;;19.00;29.90;;;;;;5031430;28;20177;-73
2021/04/21 08:13:43;;;;;;;9.17;8.37;;;19.00;30.00;;;;;;5031635;28;20437;-73
2021/04/21 08:16:30;;;;;;;7.70;7.10;;;19.00;30.00;;;;;;5031306;28;20451;-72
2021/04/21 08:18:59;;;;;;;10.10;8.47;;;19.00;30.00;;;;;;5031693;28;20407;-73
2021/04/21 08:21:41;;;;;;;8.80;8.03;;;19.00;30.00;;;;;;5031878;28;20415;-73
2021/04/21 08:24:09;;;;;;;8.87;8.27;;;19.00;30.00;;;;;;5031639;28;20450;-72
2021/04/21 08:26:35;;;;;;;8.30;7.80;;;19.00;30.00;;;;;;5031141;28;20446;-73
2021/04/21 08:29:02;;;;;;;9.30;8.53;;;19.00;30.80;;;;;;5031482;28;20403;-73
2021/04/21 08:31:29;;;;;;;9.43;8.00;;;19.00;30.10;;;;;;5030045;28;20988;-72
2021/04/21 08:33:55;;;;;;;8.40;7.80;;;19.00;30.10;;;;;;5031043;28;20415;-73
2021/04/21 08:36:21;;;;;;;8.33;7.73;;;19.00;30.20;;;;;;5031007;28;20438;-72
2021/04/21 08:38:47;;;;;;;9.30;8.10;;;19.00;30.20;;;;;;5031474;28;20423;-73
2021/04/21 08:41:16;;;;;;;8.57;7.87;;;19.00;30.20;;;;;;5031121;28;20447;-73
2021/04/21 08:43:45;;;;;;;8.10;7.50;;;19.00;30.20;;;;;;5031471;28;20900;-73
2021/04/21 08:46:12;;;;;;;8.40;7.90;;;19.00;30.20;;;;;;5029582;28;21287;-72
2021/04/21 08:48:39;;;;;;;7.63;7.03;;;19.00;30.30;;;;;;5030965;28;20446;-73
2021/04/21 08:51:06;;;;;;;7.80;7.10;;;19.00;30.30;;;;;;5029677;28;20415;-74
2021/04/21 08:53:35;;;;;;;8.20;7.80;;;19.00;30.30;;;;;;5031734;28;20498;-73
2021/04/21 08:56:04;;;;;;;8.13;7.60;;;18.90;30.30;;;;;;5030914;28;20774;-73
2021/04/21 08:58:31;;;;;;;8.60;8.00;;;19.00;30.30;;;;;;5031202;28;20435;-73
2021/04/21 09:00:57;;;;;;;8.00;7.50;;;18.90;30.30;;;;;;5032411;28;20411;-73
2021/04/21 09:03:23;;;;;;;8.63;7.90;;;19.00;30.40;;;;;;5033171;28;20400;-73
2021/04/21 09:05:48;;;;;;;8.13;7.53;;;19.00;30.40;;;;;;5032660;28;20169;-73
2021/04/21 09:08:14;;;;;;;8.27;7.50;;;18.90;30.30;;;;;;5032213;28;20193;-72
2021/04/21 09:10:40;;;;;;;8.20;7.70;;;18.90;30.40;;;;;;5030964;28;20318;-74
2021/04/21 09:13:06;;;;;;;8.77;8.17;;;18.90;30.40;;;;;;5030677;28;20184;-74
2021/04/21 09:15:31;;;;;;;8.30;7.70;;;18.90;30.40;;;;;;5030169;28;20412;-73
2021/04/21 09:17:57;;;;;;;7.20;6.80;;;18.90;30.50;;;;;;5030332;28;20455;-73
2021/04/21 09:20:25;;;;;;;8.00;7.40;;;18.90;30.50;;;;;;5030500;28;20183;-73
2021/04/21 09:23:18;;;;;;;8.77;8.17;;;18.90;30.50;;;;;;5030543;28;20227;-72
2021/04/21 09:25:49;;;;;;;8.23;7.63;;;18.90;30.40;;;;;;5029906;28;20499;-73
2021/04/21 09:28:20;;;;;;;8.17;7.57;;;18.90;30.50;;;;;;5030338;28;20419;-73
2021/04/21 09:30:56;;;;;;;8.57;7.97;;;18.90;30.40;;;;;;5030410;28;20400;-73
2021/04/21 09:33:25;;;;;;;7.70;7.20;;;18.90;30.50;;;;;;5029828;28;20828;-73
2021/04/21 09:35:51;;;;;;;7.53;7.03;;;18.90;30.60;;;;;;5030187;28;20491;-72
2021/04/21 09:38:21;;;;;;;7.40;6.90;;;19.00;30.60;;;;;;5030106;28;21024;-73
2021/04/21 09:40:49;;;;;;;7.97;7.43;;;18.90;30.50;;;;;;5030148;28;20641;-73
2021/04/21 09:43:23;;;;;;;7.60;6.90;;;19.00;30.60;;;;;;5030144;28;20434;-73
2021/04/21 09:45:58;;;;;;;7.60;7.20;;;19.00;30.60;;;;;;5029809;28;20416;-74
2021/04/21 09:48:35;;;;;;;7.90;7.30;;;18.90;30.50;;;;;;5030217;28;20406;-73
2021/04/21 09:51:09;;;;;;;8.20;7.60;;;18.90;30.50;;;;;;5030125;28;20490;-73
2021/04/21 09:53:36;;;;;;;8.20;7.70;;;18.90;30.50;;;;;;5029878;28;20438;-73
2021/04/21 09:56:06;;;;;;;7.63;7.13;;;18.90;30.60;;;;;;5029727;28;20395;-72
2021/04/21 09:58:51;;;;;;;7.47;6.97;;;18.90;30.50;;;;;;5030126;28;20411;-73
2021/04/21 10:01:23;;;;;;;8.50;7.90;;;18.90;30.60;;;;;;5029574;28;20409;-73
2021/04/21 10:04:04;;;;;;;8.20;7.60;;;18.90;30.50;;;;;;5029872;28;20941;-73
2021/04/21 10:06:30;;;;;;;7.67;7.17;;;18.90;30.60;;;;;;5029784;28;20789;-74
2021/04/21 10:08:56;;;;;;;7.30;6.90;;;18.90;30.50;;;;;;5029923;28;20494;-74
2021/04/21 10:11:21;;;;;;;7.90;7.40;;;18.90;30.50;;;;;;5029926;28;20404;-71
2021/04/21 10:13:50;;;;;;;7.60;7.10;;;18.90;30.60;;;;;;5029875;28;20262;-72
2021/04/21 10:16:16;;;;;;;7.13;6.53;;;18.90;30.50;;;;;;5028254;28;20211;-72
2021/04/21 10:18:42;;;;;;;6.93;6.53;;;18.90;30.60;;;;;;5030236;28;20494;-72
2021/04/21 10:21:12;;;;;;;7.13;6.43;;;18.90;30.60;;;;;;5029893;28;20407;-72
2021/04/21 10:23:38;;;;;;;7.77;7.27;;;18.90;30.60;;;;;;5029474;28;20458;-73
2021/04/21 10:26:10;;;;;;;7.23;6.83;;;18.90;30.60;;;;;;5029460;28;20442;-73
2021/04/21 10:28:37;;;;;;;7.30;6.80;;;18.90;30.70;;;;;;5033844;28;20411;-73
2021/04/21 10:31:06;;;;;;;6.77;6.20;;;18.90;30.70;;;;;;5033330;28;20960;-73
2021/04/21 10:33:32;;;;;;;7.83;7.23;;;18.90;30.60;;;;;;5033702;28;20410;-73
2021/04/21 10:35:58;;;;;;;6.90;6.40;;;18.90;30.60;;;;;;5032222;28;20408;-72
2021/04/21 10:38:26;;;;;;;6.93;6.13;;;18.90;30.60;;;;;;5033422;28;20995;-71
2021/04/21 10:41:24;;;;;;;6.87;6.47;;;18.90;30.60;;;;;;5033059;28;20169;-72
2021/04/21 10:44:05;;;;;;;6.93;6.47;;;18.90;30.60;;;;;;5033315;28;20475;-72
2021/04/21 10:46:57;;;;;;;7.20;6.70;;;18.90;30.60;;;;;;5033075;28;20936;-71
2021/04/21 10:49:41;;;;;;;6.83;6.43;;;18.90;30.60;;;;;;5032761;28;20408;-72
2021/04/21 10:52:13;;;;;;;7.17;6.57;;;18.90;30.60;;;;;;5033578;28;20498;-72
2021/04/21 10:54:39;;;;;;;6.70;6.30;;;18.90;30.60;;;;;;5033008;28;20419;-72
2021/04/21 10:57:19;;;;;;;7.03;6.43;;;18.90;30.60;;;;;;5032948;28;20427;-72
2021/04/21 11:00:04;;;;;;;7.37;6.87;;;18.90;30.50;;;;;;5033272;28;20183;-70
2021/04/21 11:02:42;;;;;;;6.73;6.33;;;18.90;30.60;;;;;;5032958;28;20399;-71
2021/04/21 11:05:12;;;;;;;7.10;6.50;;;19.00;30.70;;;;;;5032615;28;20536;-71
2021/04/21 11:07:43;;;;;;;6.83;6.43;;;18.90;30.60;;;;;;5032636;28;20419;-72
2021/04/21 11:10:30;;;;;;;7.40;6.90;;;18.90;30.50;;;;;;5032955;28;20407;-72
2021/04/21 11:12:56;;;;;;;7.17;6.67;;;18.90;30.50;;;;;;5031248;28;20577;-71
2021/04/21 11:15:41;;;;;;;6.63;6.23;;;18.90;30.60;;;;;;5032475;28;20502;-72
2021/04/21 11:18:13;;;;;;;7.53;7.00;;;18.90;30.60;;;;;;5032663;28;20518;-71
2021/04/21 11:20:48;;;;;;;7.60;7.10;;;18.90;30.60;;;;;;5032549;28;21108;-71
2021/04/21 11:23:58;;;;;;;7.80;7.20;;;18.90;30.60;;;;;;5032303;28;20469;-71
2021/04/21 11:26:30;;;;;;;7.43;6.93;;;18.90;30.70;;;;;;5032360;28;20436;-72
2021/04/21 11:29:08;;;;;;;6.60;6.20;;;18.90;30.70;;;;;;5032485;28;20489;-71
2021/04/21 11:31:39;;;;;;;7.00;6.50;;;18.90;30.70;;;;;;5032562;28;20437;-72
2021/04/21 11:34:17;;;;;;;7.33;6.80;;;18.90;30.70;;;;;;5032404;28;20414;-71
2021/04/21 11:37:07;;;;;;;6.80;6.30;;;18.90;30.80;;;;;;5031876;28;20464;-71
2021/04/21 11:39:44;;;;;;;7.27;6.77;;;18.90;30.70;;;;;;5032367;28;20408;-72
2021/04/21 11:42:24;;;;;;;6.90;6.40;;;18.90;30.80;;;;;;5032448;28;20415;-73
2021/04/21 11:44:49;;;;;;;6.20;5.80;;;18.90;30.80;;;;;;5032212;28;20504;-72
2021/04/21 11:47:52;;;;;;;6.30;6.00;;;18.90;30.80;;;;;;5032168;28;20526;-72
2021/04/21 11:50:17;;;;;;;6.50;5.87;;;18.90;30.80;;;;;;5041088;28;20260;-72
2021/04/21 11:53:02;;;;;;;6.50;6.10;;;18.90;30.80;;;;;;5023052;28;20498;-71
2021/04/21 11:55:55;;;;;;;7.30;6.80;;;18.80;30.70;;;;;;5021398;28;20751;-72
2021/04/21 11:58:28;;;;;;;6.50;6.00;;;18.90;30.80;;;;;;5020745;28;20490;-71
2021/04/21 12:01:07;;;;;;;8.83;7.07;;;18.80;30.70;;;;;;5021117;28;20753;-71
2021/04/21 12:03:34;;;;;;;6.87;6.43;;;18.80;30.80;;;;;;5020699;28;20408;-71
2021/04/21 12:06:06;;;;;;;7.30;6.73;;;18.90;30.80;;;;;;5019200;28;20864;-71
2021/04/21 12:08:39;;;;;;;7.43;6.80;;;18.90;30.80;;;;;;5021113;28;20478;-71
2021/04/21 12:11:07;;;;;;;6.50;6.13;;;18.90;30.80;;;;;;5020048;28;20771;-71
2021/04/21 12:13:46;;;;;;;7.10;6.60;;;18.80;30.80;;;;;;5021490;28;21011;-72
2021/04/21 12:16:26;;;;;;;6.90;6.37;;;18.80;30.80;;;;;;5021004;28;20424;-72
2021/04/21 12:18:53;;;;;;;6.60;5.50;;;18.80;30.80;;;;;;5021279;28;20428;-72
2021/04/21 12:21:18;;;;;;;7.03;6.10;;;18.90;30.80;;;;;;5019183;28;20419;-73
2021/04/21 12:24:02;;;;;;;6.07;5.67;;;18.80;30.80;;;;;;5022007;28;20509;-72
2021/04/21 12:26:36;;;;;;;6.80;6.20;;;18.80;30.80;;;;;;5022255;28;20189;-73
2021/04/21 12:29:12;;;;;;;6.10;5.77;;;18.80;30.80;;;;;;5018096;28;20426;-71
2021/04/21 12:31:38;;;;;;;8.20;6.67;;;18.80;30.80;;;;;;5021066;28;20960;-71
2021/04/21 12:34:06;;;;;;;6.30;5.80;;;18.80;30.80;;;;;;5019704;28;20423;-71
2021/04/21 12:36:34;;;;;;;6.70;6.20;;;18.80;30.90;;;;;;5019587;28;20205;-71
2021/04/21 12:39:07;;;;;;;7.17;6.47;;;18.80;30.80;;;;;;5020044;28;20411;-71
2021/04/21 12:41:34;;;;;;;6.97;6.47;;;18.80;30.80;;;;;;5018654;28;20474;-71
2021/04/21 12:44:40;;;;;;;7.17;6.57;;;18.80;30.80;;;;;;5019594;28;20562;-71
2021/04/21 12:47:10;;;;;;;6.73;6.20;;;18.80;30.90;;;;;;5020132;28;20439;-71
2021/04/21 12:49:46;;;;;;;6.10;5.80;;;18.80;30.90;;;;;;5019930;28;20420;-71
2021/04/21 12:52:17;;;;;;;6.83;6.33;;;18.80;30.90;;;;;;5019263;28;20554;-71
2021/04/21 12:54:46;;;;;;;5.73;5.33;;;18.80;30.90;;;;;;5017881;28;20420;-72
2021/04/21 12:57:14;;;;;;;6.53;6.03;;;18.80;30.90;;;;;;5019544;28;20451;-72
2021/04/21 12:59:46;;;;;;;6.53;6.10;;;18.80;30.90;;;;;;5020533;28;20424;-71
2021/04/21 13:02:15;;;;;;;6.23;5.83;;;18.80;30.90;;;;;;5019272;28;20423;-71
2021/04/21 13:04:42;;;;;;;6.83;6.30;;;18.70;30.90;;;;;;5018983;28;20490;-72
2021/04/21 13:07:18;;;;;;;6.63;6.17;;;18.80;30.90;;;;;;5020593;28;20485;-71
2021/04/21 13:09:45;;;;;;;7.50;6.90;;;18.70;30.90;;;;;;5021056;28;21098;-71
2021/04/21 13:12:14;;;;;;;6.00;5.53;;;18.70;30.80;;;;;;5019192;28;20450;-73
2021/04/21 13:14:46;;;;;;;6.57;6.07;;;18.70;30.90;;;;;;5018616;28;20495;-72